createdAt,value
2023-03-27T00:00:39.015Z,1004.77
2023-03-27T00:02:39.059Z,1004.72
2023-03-27T00:04:39.114Z,1004.75
2023-03-27T00:06:39.025Z,1004.75
2023-03-27T00:08:39.097Z,1004.74
2023-03-27T00:10:39.015Z,1004.79
2023-03-27T00:12:39.063Z,1004.76
2023-03-27T00:14:39.048Z,1004.72
2023-03-27T00:16:39.050Z,1004.72
2023-03-27T00:18:39.006Z,1004.82
2023-03-27T00:20:39.026Z,1004.87
2023-03-27T00:22:39.021Z,1004.86
2023-03-27T00:24:39.028Z,1004.85
2023-03-27T00:26:39.025Z,1004.85
2023-03-27T00:28:39.038Z,1004.89
2023-03-27T00:30:39.078Z,1004.85
2023-03-27T00:32:39.085Z,1004.86
2023-03-27T00:34:39.033Z,1004.86
2023-03-27T00:36:39.018Z,1004.92
2023-03-27T00:38:39.036Z,1004.92
2023-03-27T00:40:39.091Z,1004.95
2023-03-27T00:42:39.026Z,1004.94
2023-03-27T00:44:39.828Z,1004.94
2023-03-27T00:46:39.171Z,1005.00
2023-03-27T00:48:39.040Z,1005.05
2023-03-27T00:50:39.042Z,1005.05
2023-03-27T00:52:39.056Z,1005.05
2023-03-27T00:54:39.040Z,1005.05
2023-03-27T00:57:09.060Z,1005.09
2023-03-27T00:59:09.040Z,1005.08
2023-03-27T01:01:09.281Z,1005.06
2023-03-27T01:03:09.086Z,1005.06
2023-03-27T01:05:09.170Z,1005.00
2023-03-27T01:07:09.038Z,1004.99
2023-03-27T01:09:09.108Z,1005.02
2023-03-27T01:11:09.054Z,1005.00
2023-03-27T01:13:09.033Z,1005.00
2023-03-27T01:15:09.206Z,1005.08
2023-03-27T01:17:09.052Z,1005.07
2023-03-27T01:19:09.049Z,1005.07
2023-03-27T01:21:09.062Z,1005.08
2023-03-27T01:23:09.064Z,1005.08
2023-03-27T01:25:11.651Z,1005.12
2023-03-27T01:27:09.048Z,1005.12
2023-03-27T01:29:09.060Z,1005.21
2023-03-27T01:31:09.179Z,1005.24
2023-03-27T01:33:09.111Z,1005.24
2023-03-27T01:35:09.095Z,1005.24
2023-03-27T01:37:09.055Z,1005.31
2023-03-27T01:39:09.057Z,1005.36
2023-03-27T01:41:09.059Z,1005.36
2023-03-27T01:43:09.058Z,1005.52
2023-03-27T01:45:09.080Z,1005.59
2023-03-27T01:47:09.184Z,1005.59
2023-03-27T01:49:09.065Z,1005.70
2023-03-27T01:51:09.067Z,1005.70
2023-03-27T01:53:09.081Z,1005.78
2023-03-27T01:55:09.080Z,1005.80
2023-03-27T01:57:09.091Z,1005.80
2023-03-27T01:59:10.157Z,1005.80
2023-03-27T02:01:09.327Z,1005.80
2023-03-27T02:03:09.091Z,1006.07
2023-03-27T02:05:09.107Z,1006.20
2023-03-27T02:07:09.082Z,1006.22
2023-03-27T02:09:09.075Z,1006.22
2023-03-27T02:11:09.138Z,1006.27
2023-03-27T02:13:09.083Z,1006.33
2023-03-27T02:15:22.680Z,1006.36
2023-03-27T02:17:09.067Z,1006.45
2023-03-27T02:19:09.096Z,1006.45
2023-03-27T02:21:09.094Z,1006.42
2023-03-27T02:23:09.090Z,1006.48
2023-03-27T02:25:09.077Z,1006.48
2023-03-27T02:27:09.096Z,1006.62
2023-03-27T02:29:09.076Z,1006.62
2023-03-27T02:31:33.303Z,1006.68
2023-03-27T02:33:09.259Z,1006.72
2023-03-27T02:35:09.146Z,1006.82
2023-03-27T02:37:09.096Z,1006.82
2023-03-27T02:39:09.099Z,1006.82
2023-03-27T02:41:09.137Z,1006.82
2023-03-27T02:43:09.078Z,1007.12
2023-03-27T02:45:09.091Z,1007.16
2023-03-27T02:47:09.129Z,1007.16
2023-03-27T02:49:39.226Z,1007.35
2023-03-27T02:51:39.105Z,1007.35
2023-03-27T02:53:39.157Z,1007.46
2023-03-27T02:55:39.106Z,1007.52
2023-03-27T02:57:39.139Z,1007.63
2023-03-27T02:59:39.112Z,1007.69
2023-03-27T03:01:39.158Z,1007.69
2023-03-27T03:03:39.186Z,1007.77
2023-03-27T03:05:39.103Z,1007.79
2023-03-27T03:07:39.115Z,1007.89
2023-03-27T03:09:40.593Z,1007.89
2023-03-27T03:11:39.097Z,1008.02
2023-03-27T03:13:39.125Z,1008.02
2023-03-27T03:15:39.137Z,1008.16
2023-03-27T03:17:39.178Z,1008.16
2023-03-27T03:19:39.124Z,1008.16
2023-03-27T03:21:39.124Z,1008.16
2023-03-27T03:23:39.140Z,1008.42
2023-03-27T03:25:39.123Z,1008.50
2023-03-27T03:27:39.129Z,1008.50
2023-03-27T03:29:39.114Z,1008.50
2023-03-27T03:31:39.210Z,1008.60
2023-03-27T03:33:39.135Z,1008.69
2023-03-27T03:35:39.222Z,1008.86
2023-03-27T03:37:39.147Z,1008.86
2023-03-27T03:39:39.160Z,1008.90
2023-03-27T03:41:39.229Z,1008.96
2023-03-27T03:43:39.217Z,1009.07
2023-03-27T03:45:39.227Z,1009.10
2023-03-27T03:47:39.308Z,1009.10
2023-03-27T03:49:39.164Z,1009.16
2023-03-27T03:51:39.147Z,1009.23
2023-03-27T03:53:39.162Z,1009.37
2023-03-27T03:55:39.138Z,1009.42
2023-03-27T03:57:39.130Z,1009.42
2023-03-27T03:59:39.231Z,1009.53
2023-03-27T04:01:39.141Z,1009.53
2023-03-27T04:03:39.297Z,1009.77
2023-03-27T04:05:39.200Z,1009.77
2023-03-27T04:07:39.164Z,1009.83
2023-03-27T04:09:39.192Z,1009.92
2023-03-27T04:11:39.220Z,1010.07
2023-03-27T04:13:39.250Z,1010.09
2023-03-27T04:15:39.172Z,1010.09
2023-03-27T04:17:39.204Z,1010.22
2023-03-27T04:19:39.330Z,1010.32
2023-03-27T04:21:39.175Z,1010.38
2023-03-27T04:23:39.210Z,1010.38
2023-03-27T04:25:39.187Z,1010.38
2023-03-27T04:27:39.135Z,1010.38
2023-03-27T04:29:39.251Z,1010.59
2023-03-27T04:31:39.388Z,1010.65
2023-03-27T04:33:39.566Z,1010.65
2023-03-27T04:35:39.211Z,1010.65
2023-03-27T04:37:39.177Z,1010.81
2023-03-27T04:40:10.237Z,1010.81
2023-03-27T04:42:09.145Z,1010.81
2023-03-27T04:44:09.231Z,1010.81
2023-03-27T04:46:09.331Z,1011.04
2023-03-27T04:48:09.189Z,1011.07
2023-03-27T04:50:09.154Z,1011.13
2023-03-27T04:52:09.172Z,1011.22
2023-03-27T04:54:09.202Z,1011.22
2023-03-27T04:56:09.173Z,1011.37
2023-03-27T04:58:11.447Z,1011.40
2023-03-27T05:00:09.172Z,1011.50
2023-03-27T05:02:09.445Z,1011.58
2023-03-27T05:04:09.373Z,1011.58
2023-03-27T05:06:09.187Z,1011.64
2023-03-27T05:08:09.304Z,1011.66
2023-03-27T05:10:09.309Z,1011.73
2023-03-27T05:12:09.260Z,1011.73
2023-03-27T05:14:09.173Z,1011.75
2023-03-27T05:16:09.211Z,1011.82
2023-03-27T05:18:09.440Z,1011.89
2023-03-27T05:20:09.350Z,1011.94
2023-03-27T05:22:09.176Z,1011.94
2023-03-27T05:24:09.223Z,1011.94
2023-03-27T05:26:09.233Z,1012.06
2023-03-27T05:28:09.320Z,1012.16
2023-03-27T05:30:16.837Z,1012.24
2023-03-27T05:32:09.244Z,1012.24
2023-03-27T05:34:09.231Z,1012.35
2023-03-27T05:36:09.249Z,1012.42
2023-03-27T05:38:09.311Z,1012.48
2023-03-27T05:40:09.230Z,1012.48
2023-03-27T05:42:09.370Z,1012.49
2023-03-27T05:44:09.264Z,1012.49
2023-03-27T05:46:09.296Z,1012.63
2023-03-27T05:50:17.722Z,1012.74
2023-03-27T05:52:17.723Z,1012.79
2023-03-27T05:54:17.674Z,1012.79
2023-03-27T05:56:17.763Z,1012.90
2023-03-27T05:58:17.662Z,1012.96
2023-03-27T06:00:17.678Z,1013.03
2023-03-27T06:02:19.751Z,1013.03
2023-03-27T06:04:17.799Z,1013.03
2023-03-27T06:06:17.703Z,1013.19
2023-03-27T06:08:17.734Z,1013.24
2023-03-27T06:10:17.674Z,1013.28
2023-03-27T06:12:17.767Z,1013.28
2023-03-27T06:14:17.677Z,1013.37
2023-03-27T06:16:17.687Z,1013.44
2023-03-27T06:18:17.828Z,1013.52
2023-03-27T06:20:17.690Z,1013.56
2023-03-27T06:22:17.692Z,1013.56
2023-03-27T06:24:17.763Z,1013.64
2023-03-27T06:26:17.758Z,1013.69
2023-03-27T06:28:17.771Z,1013.69
2023-03-27T06:30:17.702Z,1013.88
2023-03-27T06:32:17.846Z,1013.88
2023-03-27T06:34:17.737Z,1013.96
2023-03-27T06:36:17.792Z,1014.02
2023-03-27T06:38:17.703Z,1014.08
2023-03-27T06:40:17.696Z,1014.08
2023-03-27T06:42:17.696Z,1014.08
2023-03-27T06:44:17.714Z,1014.08
2023-03-27T06:46:17.840Z,1014.08
2023-03-27T06:48:21.294Z,1014.27
2023-03-27T06:50:17.750Z,1014.27
2023-03-27T06:52:17.705Z,1014.43
2023-03-27T06:54:17.747Z,1014.43
2023-03-27T06:56:17.692Z,1014.53
2023-03-27T06:58:17.708Z,1014.54
2023-03-27T07:00:47.734Z,1014.54
2023-03-27T07:02:47.732Z,1014.62
2023-03-27T07:04:57.798Z,1014.71
2023-03-27T07:06:47.752Z,1014.73
2023-03-27T07:08:48.975Z,1014.73
2023-03-27T07:10:56.392Z,1014.75
2023-03-27T07:12:47.718Z,1014.85
2023-03-27T07:14:47.706Z,1014.90
2023-03-27T07:16:47.740Z,1014.93
2023-03-27T07:18:47.709Z,1014.93
2023-03-27T07:20:47.717Z,1015.05
2023-03-27T07:22:47.778Z,1015.10
2023-03-27T07:24:47.714Z,1015.10
2023-03-27T07:26:47.721Z,1015.19
2023-03-27T07:28:47.840Z,1015.19
2023-03-27T07:30:47.728Z,1015.20
2023-03-27T07:32:47.814Z,1015.33
2023-03-27T07:34:47.702Z,1015.38
2023-03-27T07:36:47.733Z,1015.38
2023-03-27T07:38:47.721Z,1015.42
2023-03-27T07:40:47.739Z,1015.47
2023-03-27T07:42:47.730Z,1015.60
2023-03-27T07:44:47.714Z,1015.68
2023-03-27T07:46:47.726Z,1015.68
2023-03-27T07:48:47.713Z,1015.73
2023-03-27T07:50:47.792Z,1015.74
2023-03-27T07:52:47.722Z,1015.91
2023-03-27T07:54:47.789Z,1015.95
2023-03-27T07:56:47.819Z,1015.95
2023-03-27T07:58:47.759Z,1016.03
2023-03-27T08:00:47.730Z,1016.03
2023-03-27T08:02:47.783Z,1016.23
2023-03-27T08:04:47.895Z,1016.23
2023-03-27T08:06:47.758Z,1016.23
2023-03-27T08:08:47.742Z,1016.34
2023-03-27T08:10:47.825Z,1016.36
2023-03-27T08:12:47.730Z,1016.36
2023-03-27T08:14:47.729Z,1016.36
2023-03-27T08:16:47.762Z,1016.36
2023-03-27T08:18:47.764Z,1016.41
2023-03-27T08:20:47.750Z,1016.43
2023-03-27T08:22:48.857Z,1016.43
2023-03-27T08:24:47.747Z,1016.43
2023-03-27T08:26:47.791Z,1016.56
2023-03-27T08:28:47.764Z,1016.61
2023-03-27T08:30:47.782Z,1016.70
2023-03-27T08:32:47.851Z,1016.77
2023-03-27T08:34:47.750Z,1016.77
2023-03-27T08:36:47.810Z,1016.80
2023-03-27T08:38:47.778Z,1016.83
2023-03-27T08:40:47.762Z,1016.88
2023-03-27T08:42:47.791Z,1016.88
2023-03-27T08:44:47.742Z,1016.95
2023-03-27T08:46:47.909Z,1016.95
2023-03-27T08:48:47.768Z,1016.96
2023-03-27T08:50:47.755Z,1017.06
2023-03-27T08:53:17.835Z,1017.08
2023-03-27T08:55:17.761Z,1017.10
2023-03-27T08:57:17.910Z,1017.10
2023-03-27T08:59:17.842Z,1017.20
2023-03-27T09:01:17.802Z,1017.20
2023-03-27T09:03:17.865Z,1017.29
2023-03-27T09:05:17.756Z,1017.28
2023-03-27T09:07:17.748Z,1017.28
2023-03-27T09:09:17.852Z,1017.27
2023-03-27T09:11:19.388Z,1017.32
2023-03-27T09:13:17.889Z,1017.38
2023-03-27T09:15:17.801Z,1017.38
2023-03-27T09:17:17.775Z,1017.45
2023-03-27T09:19:17.797Z,1017.48
2023-03-27T09:21:17.840Z,1017.48
2023-03-27T09:23:19.821Z,1017.48
2023-03-27T09:25:17.784Z,1017.48
2023-03-27T09:27:17.836Z,1017.48
2023-03-27T09:29:20.115Z,1017.47
2023-03-27T09:31:17.932Z,1017.62
2023-03-27T09:33:17.990Z,1017.59
2023-03-27T09:35:17.888Z,1017.59
2023-03-27T09:37:18.060Z,1017.65
2023-03-27T09:39:17.867Z,1017.63
2023-03-27T09:41:17.778Z,1017.71
2023-03-27T09:43:17.805Z,1017.71
2023-03-27T09:45:17.782Z,1017.72
2023-03-27T09:47:17.859Z,1017.72
2023-03-27T09:49:17.829Z,1017.72
2023-03-27T09:51:17.870Z,1017.76
2023-03-27T09:53:17.858Z,1017.76
2023-03-27T09:55:17.859Z,1017.84
2023-03-27T09:57:17.873Z,1017.91
2023-03-27T09:59:17.898Z,1017.91
2023-03-27T10:01:17.853Z,1017.99
2023-03-27T10:03:17.975Z,1017.99
2023-03-27T10:05:17.844Z,1017.93
2023-03-27T10:07:17.857Z,1017.93
2023-03-27T10:09:17.889Z,1017.99
2023-03-27T10:11:17.819Z,1017.99
2023-03-27T10:13:17.920Z,1018.01
2023-03-27T10:15:17.798Z,1017.98
2023-03-27T10:17:17.809Z,1017.99
2023-03-27T10:19:17.867Z,1018.11
2023-03-27T10:21:17.823Z,1018.11
2023-03-27T10:23:17.915Z,1018.12
2023-03-27T10:25:17.871Z,1018.11
2023-03-27T10:27:17.830Z,1018.10
2023-03-27T10:29:17.903Z,1018.11
2023-03-27T10:31:17.881Z,1018.11
2023-03-27T10:33:17.958Z,1018.14
2023-03-27T10:35:17.932Z,1018.22
2023-03-27T10:37:17.956Z,1018.29
2023-03-27T10:39:17.807Z,1018.29
2023-03-27T10:41:28.541Z,1018.26
2023-03-27T10:43:17.835Z,1018.23
2023-03-27T10:45:17.842Z,1018.23
2023-03-27T10:47:47.863Z,1018.23
2023-03-27T10:49:47.871Z,1018.23
2023-03-27T10:51:47.868Z,1018.28
2023-03-27T10:53:47.931Z,1018.24
2023-03-27T10:55:47.873Z,1018.31
2023-03-27T10:57:47.876Z,1018.31
2023-03-27T10:59:47.839Z,1018.31
2023-03-27T11:01:48.023Z,1018.45
2023-03-27T11:03:48.089Z,1018.47
2023-03-27T11:05:47.849Z,1018.47
2023-03-27T11:07:47.841Z,1018.53
2023-03-27T11:09:47.840Z,1018.53
2023-03-27T11:11:47.823Z,1018.52
2023-03-27T11:13:47.845Z,1018.65
2023-03-27T11:15:47.839Z,1018.65
2023-03-27T11:17:47.883Z,1018.65
2023-03-27T11:19:47.844Z,1018.65
2023-03-27T11:21:47.844Z,1018.62
2023-03-27T11:23:47.914Z,1018.60
2023-03-27T11:25:47.842Z,1018.57
2023-03-27T11:27:47.842Z,1018.57
2023-03-27T11:29:47.862Z,1018.57
2023-03-27T11:31:47.934Z,1018.60
2023-03-27T11:33:47.878Z,1018.60
2023-03-27T11:35:47.911Z,1018.60
2023-03-27T11:37:47.849Z,1018.60
2023-03-27T11:39:47.882Z,1018.62
2023-03-27T11:41:47.848Z,1018.67
2023-03-27T11:43:47.879Z,1018.70
2023-03-27T11:45:47.864Z,1018.70
2023-03-27T11:47:47.890Z,1018.81
2023-03-27T11:49:47.898Z,1018.83
2023-03-27T11:51:47.883Z,1018.87
2023-03-27T11:53:47.889Z,1018.88
2023-03-27T11:55:47.932Z,1018.88
2023-03-27T11:57:47.864Z,1018.93
2023-03-27T11:59:47.998Z,1019.03
2023-03-27T12:01:47.922Z,1019.03
2023-03-27T12:03:48.069Z,1019.38
2023-03-27T12:05:47.981Z,1019.38
2023-03-27T12:07:48.147Z,1019.38
2023-03-27T12:09:47.964Z,1019.38
2023-03-27T12:11:47.891Z,1019.56
2023-03-27T12:13:55.037Z,1019.56
2023-03-27T12:15:47.878Z,1019.56
2023-03-27T12:17:48.064Z,1019.42
2023-03-27T12:19:47.989Z,1019.38
2023-03-27T12:21:47.900Z,1019.38
2023-03-27T12:23:47.920Z,1019.38
2023-03-27T12:25:47.914Z,1019.36
2023-03-27T12:27:48.005Z,1019.42
2023-03-27T12:29:47.971Z,1019.42
2023-03-27T12:31:48.311Z,1019.47
2023-03-27T12:33:47.882Z,1019.47
2023-03-27T12:35:47.922Z,1019.47
2023-03-27T12:37:47.926Z,1019.47
2023-03-27T12:39:47.941Z,1019.47
2023-03-27T12:42:17.950Z,1019.46
2023-03-27T12:44:17.970Z,1019.43
2023-03-27T12:46:17.951Z,1019.43
2023-03-27T12:48:17.954Z,1019.40
2023-03-27T12:50:17.890Z,1019.40
2023-03-27T12:54:20.034Z,1019.31
2023-03-27T12:58:15.516Z,1019.30
2023-03-27T13:00:15.541Z,1019.26
2023-03-27T13:02:15.540Z,1019.27
2023-03-27T13:04:15.467Z,1019.23
2023-03-27T13:06:15.473Z,1019.23
2023-03-27T13:08:15.497Z,1019.23
2023-03-27T13:10:15.467Z,1019.23
2023-03-27T13:12:15.452Z,1019.19
2023-03-27T13:14:15.783Z,1019.19
2023-03-27T13:16:15.761Z,1019.21
2023-03-27T13:18:15.579Z,1019.20
2023-03-27T13:20:15.455Z,1019.27
2023-03-27T13:22:15.750Z,1019.26
2023-03-27T13:24:15.570Z,1019.26
2023-03-27T13:26:15.479Z,1019.26
2023-03-27T13:28:15.538Z,1019.26
2023-03-27T13:30:15.566Z,1019.26
2023-03-27T13:32:15.474Z,1019.26
2023-03-27T13:34:15.607Z,1019.26
2023-03-27T13:36:15.502Z,1019.20
2023-03-27T13:38:15.487Z,1019.20
2023-03-27T13:40:15.482Z,1019.20
2023-03-27T13:42:15.487Z,1019.20
2023-03-27T13:44:15.488Z,1019.22
2023-03-27T13:46:15.545Z,1019.28
2023-03-27T13:48:15.490Z,1019.32
2023-03-27T13:50:15.532Z,1019.46
2023-03-27T13:52:15.505Z,1019.46
2023-03-27T13:54:15.473Z,1019.53
2023-03-27T13:56:15.611Z,1019.79
2023-03-27T13:58:15.506Z,1019.83
2023-03-27T14:00:15.485Z,1019.74
2023-03-27T14:02:15.569Z,1019.74
2023-03-27T14:04:15.502Z,1019.63
2023-03-27T14:06:15.498Z,1019.65
2023-03-27T14:08:15.482Z,1019.65
2023-03-27T14:10:15.516Z,1019.65
2023-03-27T14:12:15.498Z,1019.65
2023-03-27T14:14:15.511Z,1019.77
2023-03-27T14:16:15.569Z,1019.91
2023-03-27T14:18:15.529Z,1019.90
2023-03-27T14:20:15.513Z,1019.90
2023-03-27T14:22:15.563Z,1019.90
2023-03-27T14:24:15.653Z,1019.87
2023-03-27T14:26:15.526Z,1019.87
2023-03-27T14:28:45.480Z,1019.87
2023-03-27T14:30:45.512Z,1019.87
2023-03-27T14:32:45.545Z,1019.84
2023-03-27T14:34:53.325Z,1019.92
2023-03-27T14:36:45.540Z,1019.92
2023-03-27T14:38:45.536Z,1019.92
2023-03-27T14:40:45.550Z,1019.92
2023-03-27T14:42:45.585Z,1019.99
2023-03-27T14:44:45.515Z,1020.00
2023-03-27T14:46:45.527Z,1020.02
2023-03-27T14:48:45.525Z,1020.02
2023-03-27T14:50:45.590Z,1020.00
2023-03-27T14:52:45.556Z,1020.00
2023-03-27T14:54:55.145Z,1020.02
2023-03-27T14:56:45.538Z,1020.04
2023-03-27T14:58:45.538Z,1020.04
2023-03-27T15:00:45.617Z,1019.98
2023-03-27T15:02:45.763Z,1019.96
2023-03-27T15:04:45.536Z,1019.97
2023-03-27T15:06:45.672Z,1020.01
2023-03-27T15:08:45.527Z,1020.01
2023-03-27T15:10:45.594Z,1019.99
2023-03-27T15:12:45.653Z,1019.97
2023-03-27T15:14:45.779Z,1020.01
2023-03-27T15:16:45.708Z,1020.01
2023-03-27T15:18:45.545Z,1020.01
2023-03-27T15:20:45.650Z,1020.01
2023-03-27T15:22:45.571Z,1020.00
2023-03-27T15:24:45.595Z,1020.01
2023-03-27T15:26:45.584Z,1020.01
2023-03-27T15:28:45.616Z,1020.01
2023-03-27T15:30:45.672Z,1020.00
2023-03-27T15:32:45.696Z,1020.00
2023-03-27T15:34:45.599Z,1020.08
2023-03-27T15:36:45.658Z,1020.08
2023-03-27T15:38:45.587Z,1020.04
2023-03-27T15:40:45.586Z,1020.06
2023-03-27T15:42:45.604Z,1020.15
2023-03-27T15:44:45.653Z,1020.15
2023-03-27T15:46:45.742Z,1020.15
2023-03-27T15:48:45.654Z,1020.28
2023-03-27T15:50:45.683Z,1020.22
2023-03-27T15:52:45.617Z,1020.22
2023-03-27T15:54:47.646Z,1020.22
2023-03-27T15:56:45.599Z,1020.22
2023-03-27T15:58:45.647Z,1020.27
2023-03-27T16:00:45.673Z,1020.34
2023-03-27T16:02:45.718Z,1020.34
2023-03-27T16:04:45.591Z,1020.34
2023-03-27T16:06:45.715Z,1020.34
2023-03-27T16:08:45.571Z,1020.93
2023-03-27T16:10:45.603Z,1021.05
2023-03-27T16:12:45.618Z,1021.05
2023-03-27T16:14:45.645Z,1021.05
2023-03-27T16:16:45.746Z,1021.08
2023-03-27T16:19:15.661Z,1021.03
2023-03-27T16:21:15.607Z,1021.01
2023-03-27T16:23:15.596Z,1021.01
2023-03-27T16:25:15.644Z,1020.93
2023-03-27T16:27:15.642Z,1020.93
2023-03-27T16:29:15.627Z,1020.86
2023-03-27T16:31:15.704Z,1020.80
2023-03-27T16:33:16.367Z,1020.80
2023-03-27T16:35:15.591Z,1020.73
2023-03-27T16:37:15.713Z,1020.73
2023-03-27T16:39:15.617Z,1020.86
2023-03-27T16:41:15.649Z,1020.86
2023-03-27T16:43:15.659Z,1020.86
2023-03-27T16:45:15.828Z,1020.86
2023-03-27T16:47:15.692Z,1020.86
2023-03-27T16:49:15.734Z,1020.89
2023-03-27T16:51:15.630Z,1020.89
2023-03-27T16:53:15.642Z,1020.89
2023-03-27T16:55:15.613Z,1020.89
2023-03-27T16:57:15.974Z,1020.95
2023-03-27T16:59:15.672Z,1020.93
2023-03-27T17:01:16.805Z,1020.93
2023-03-27T17:03:15.791Z,1020.92
2023-03-27T17:05:15.751Z,1020.92
2023-03-27T17:07:15.699Z,1020.90
2023-03-27T17:09:15.634Z,1020.90
2023-03-27T17:11:15.667Z,1020.96
2023-03-27T17:13:15.771Z,1020.96
2023-03-27T17:15:15.763Z,1020.96
2023-03-27T17:17:16.651Z,1021.01
2023-03-27T17:19:15.723Z,1021.03
2023-03-27T17:21:18.859Z,1021.03
2023-03-27T17:23:15.791Z,1021.03
2023-03-27T17:25:15.796Z,1021.03
2023-03-27T17:27:15.677Z,1021.14
2023-03-27T17:29:17.707Z,1021.24
2023-03-27T17:31:15.847Z,1021.24
2023-03-27T17:33:15.641Z,1021.24
2023-03-27T17:35:15.720Z,1021.24
2023-03-27T17:37:15.668Z,1021.32
2023-03-27T17:39:16.789Z,1021.32
2023-03-27T17:41:15.702Z,1021.32
2023-03-27T17:43:15.713Z,1021.32
2023-03-27T17:45:15.711Z,1021.37
2023-03-27T17:47:15.710Z,1021.37
2023-03-27T17:49:15.651Z,1021.42
2023-03-27T17:51:15.769Z,1021.42
2023-03-27T17:53:15.666Z,1021.41
2023-03-27T17:55:15.674Z,1021.51
2023-03-27T17:57:15.796Z,1021.51
2023-03-27T17:59:15.790Z,1021.54
2023-03-27T18:01:21.683Z,1021.54
2023-03-27T18:17:45.726Z,1021.72
2023-03-27T18:19:45.835Z,1021.72
2023-03-27T18:21:45.686Z,1021.72
2023-03-27T18:23:46.603Z,1021.72
2023-03-27T18:25:45.689Z,1021.72
2023-03-27T18:27:45.725Z,1021.72
2023-03-27T18:29:45.736Z,1021.72
2023-03-27T18:31:45.751Z,1021.72
2023-03-27T18:33:45.669Z,1021.72
2023-03-27T18:35:45.796Z,1021.72
2023-03-27T18:37:45.662Z,1021.72
2023-03-27T18:39:45.715Z,1021.72
2023-03-27T18:41:45.703Z,1021.72
2023-03-27T18:43:45.747Z,1021.72
2023-03-27T18:45:45.792Z,1021.72
2023-03-27T18:47:45.849Z,1021.72
2023-03-27T18:49:45.664Z,1021.72
2023-03-27T18:51:45.880Z,1021.72
2023-03-27T18:53:45.658Z,1021.72
2023-03-27T18:55:45.741Z,1021.72
2023-03-27T18:57:45.732Z,1021.72
2023-03-27T18:59:45.765Z,1021.72
2023-03-27T19:01:45.763Z,1021.72
2023-03-27T19:03:45.769Z,1021.72
2023-03-27T19:05:45.703Z,1021.72
2023-03-27T19:07:45.735Z,1021.72
2023-03-27T19:09:45.736Z,1021.72
2023-03-27T19:11:45.730Z,1021.72
2023-03-27T19:13:45.857Z,1021.72
2023-03-27T19:15:45.785Z,1021.72
2023-03-27T19:17:45.709Z,1021.72
2023-03-27T19:19:46.703Z,1021.72
2023-03-27T19:21:45.717Z,1021.72
2023-03-27T19:23:45.737Z,1021.72
2023-03-27T19:25:45.754Z,1021.72
2023-03-27T19:27:45.825Z,1021.72
2023-03-27T19:29:45.830Z,1021.72
2023-03-27T19:31:45.833Z,1021.72
2023-03-27T19:33:45.844Z,1021.72
2023-03-27T19:35:45.747Z,1021.72
2023-03-27T19:37:45.692Z,1021.72
2023-03-27T19:39:45.728Z,1021.72
2023-03-27T19:41:45.825Z,1021.72
2023-03-27T19:43:45.767Z,1021.72
2023-03-27T19:45:45.830Z,1021.72
2023-03-27T19:47:45.805Z,1021.72
2023-03-27T19:49:45.787Z,1021.72
2023-03-27T19:51:45.743Z,1022.61
2023-03-27T19:53:45.826Z,1022.61
2023-03-27T19:56:15.800Z,1022.61
2023-03-27T19:58:15.833Z,1022.61
2023-03-27T20:00:15.890Z,1022.69
2023-03-27T20:01:57.019Z,1022.69
2023-03-27T20:03:57.073Z,1022.69
2023-03-27T20:06:07.232Z,1022.75
2023-03-27T20:07:57.069Z,1022.75
2023-03-27T20:09:57.014Z,1022.79
2023-03-27T20:11:57.039Z,1022.79
2023-03-27T20:13:57.324Z,1022.79
2023-03-27T20:15:58.106Z,1022.79
2023-03-27T20:17:56.968Z,1022.79
2023-03-27T20:19:56.970Z,1022.92
2023-03-27T20:21:57.009Z,1022.92
2023-03-27T20:23:57.009Z,1022.92
2023-03-27T20:25:57.146Z,1022.92
2023-03-27T20:27:57.069Z,1022.95
2023-03-27T20:29:57.048Z,1022.91
2023-03-27T20:31:56.960Z,1022.91
2023-03-27T20:33:57.028Z,1022.91
2023-03-27T20:36:27.031Z,1022.91
2023-03-27T20:38:27.035Z,1022.91
2023-03-27T20:40:27.178Z,1023.03
2023-03-27T20:42:27.061Z,1023.03
2023-03-27T20:44:27.024Z,1023.07
2023-03-27T20:46:27.198Z,1023.08
2023-03-27T20:48:26.973Z,1023.08
2023-03-27T20:50:27.006Z,1023.08
2023-03-27T20:52:27.022Z,1023.08
2023-03-27T20:54:27.037Z,1023.08
2023-03-27T20:56:27.072Z,1023.08
2023-03-27T20:58:27.112Z,1023.08
2023-03-27T21:00:26.952Z,1023.16
2023-03-27T21:02:27.071Z,1023.16
2023-03-27T21:04:27.016Z,1023.18
2023-03-27T21:06:27.030Z,1023.21
2023-03-27T21:08:27.058Z,1023.17
2023-03-27T21:10:27.077Z,1023.17
2023-03-27T21:12:27.064Z,1023.15
2023-03-27T21:14:27.033Z,1023.20
2023-03-27T21:16:27.076Z,1023.20
2023-03-27T21:18:26.982Z,1023.20
2023-03-27T21:20:27.029Z,1023.20
2023-03-27T21:22:27.023Z,1023.20
2023-03-27T21:24:27.109Z,1023.20
2023-03-27T21:26:27.284Z,1023.20
2023-03-27T21:28:27.066Z,1023.28
2023-03-27T21:30:46.985Z,1023.28
2023-03-27T21:32:27.017Z,1023.28
2023-03-27T21:34:27.075Z,1023.28
2023-03-27T21:36:29.423Z,1023.34
2023-03-27T21:38:27.058Z,1023.34
2023-03-27T21:40:27.088Z,1023.34
2023-03-27T21:42:26.964Z,1023.35
2023-03-27T21:44:27.093Z,1023.42
2023-03-27T21:46:27.080Z,1023.42
2023-03-27T21:48:27.038Z,1023.42
2023-03-27T21:50:27.049Z,1023.45
2023-03-27T21:52:27.046Z,1023.48
2023-03-27T21:54:26.966Z,1023.48
2023-03-27T21:56:28.147Z,1023.47
2023-03-27T21:58:27.109Z,1023.47
2023-03-27T22:00:26.983Z,1023.47
2023-03-27T22:02:27.105Z,1023.48
2023-03-27T22:04:27.105Z,1023.50
2023-03-27T22:06:26.970Z,1023.50
2023-03-27T22:08:26.971Z,1023.49
2023-03-27T22:10:27.236Z,1023.52
2023-03-27T22:12:27.111Z,1023.52
2023-03-27T22:14:27.102Z,1023.56
2023-03-27T22:16:27.020Z,1023.56
2023-03-27T22:18:26.994Z,1023.64
2023-03-27T22:20:26.980Z,1023.64
2023-03-27T22:22:57.089Z,1023.64
2023-03-27T22:24:57.103Z,1023.64
2023-03-27T22:26:57.028Z,1023.71
2023-03-27T22:28:57.027Z,1023.75
2023-03-27T22:30:57.032Z,1023.75
2023-03-27T22:32:57.092Z,1023.71
2023-03-27T22:34:56.985Z,1023.78
2023-03-27T22:36:57.012Z,1023.80
2023-03-27T22:38:56.986Z,1023.80
2023-03-27T22:40:56.992Z,1023.81
2023-03-27T22:42:57.009Z,1023.84
2023-03-27T22:44:57.069Z,1023.89
2023-03-27T22:46:57.090Z,1023.89
2023-03-27T22:48:57.086Z,1023.89
2023-03-27T22:50:57.002Z,1023.94
2023-03-27T22:52:57.008Z,1023.94
2023-03-27T22:54:57.100Z,1023.99
2023-03-27T22:56:57.014Z,1023.97
2023-03-27T22:58:57.009Z,1023.97
2023-03-27T23:00:57.024Z,1023.97
2023-03-27T23:02:57.086Z,1024.10
2023-03-27T23:04:57.002Z,1024.15
2023-03-27T23:06:57.089Z,1024.15
2023-03-27T23:08:57.010Z,1024.16
2023-03-27T23:10:57.123Z,1024.17
2023-03-27T23:12:57.070Z,1024.20
2023-03-27T23:14:57.000Z,1024.20
2023-03-27T23:16:57.031Z,1024.20
2023-03-27T23:18:57.008Z,1024.19
2023-03-27T23:20:57.094Z,1024.19
2023-03-27T23:22:57.105Z,1024.19
2023-03-27T23:24:57.013Z,1024.22
2023-03-27T23:26:57.038Z,1024.22
2023-03-27T23:28:57.032Z,1024.24
2023-03-27T23:30:57.050Z,1024.21
2023-03-27T23:32:57.068Z,1024.21
2023-03-27T23:34:57.002Z,1024.29
2023-03-27T23:36:57.029Z,1024.29
2023-03-27T23:38:57.038Z,1024.29
2023-03-27T23:40:57.127Z,1024.29
2023-03-27T23:42:57.133Z,1024.37
2023-03-27T23:44:57.024Z,1024.37
2023-03-27T23:46:57.033Z,1024.37
2023-03-27T23:48:57.086Z,1024.41
2023-03-27T23:50:57.236Z,1024.48
2023-03-27T23:52:57.016Z,1024.46
2023-03-27T23:54:57.124Z,1024.46
2023-03-27T23:56:57.072Z,1024.47
2023-03-27T23:58:57.157Z,1024.46
